sensor_id;sensor_type;location;lat;lon;timestamp;P1;durP1;ratioP1;P2;durP2;ratioP2
75744;SDS011;64359;51.366;-0.222;2023-02-15T00:00:21;9.60;;;8.70;;
75744;SDS011;64359;51.366;-0.222;2023-02-15T00:01:25;8.20;;;7.40;;
75744;SDS011;64359;51.366;-0.222;2023-02-15T00:02:30;8.20;;;7.30;;
75744;SDS011;64359;51.366;-0.222;2023-02-15T00:03:34;8.50;;;7.40;;
75744;SDS011;64359;51.366;-0.222;2023-02-15T00:04:39;8.00;;;7.20;;
75744;SDS011;64359;51.366;-0.222;2023-02-15T00:05:49;9.40;;;8.50;;
75744;SDS011;64359;51.366;-0.222;2023-02-15T00:06:53;8.50;;;6.90;;
75744;SDS011;64359;51.366;-0.222;2023-02-15T00:07:57;9.50;;;7.70;;
75744;SDS011;64359;51.366;-0.222;2023-02-15T00:09:02;8.00;;;7.20;;
75744;SDS011;64359;51.366;-0.222;2023-02-15T00:10:07;8.70;;;7.90;;
75744;SDS011;64359;51.366;-0.222;2023-02-15T00:11:14;9.40;;;8.50;;
75744;SDS011;64359;51.366;-0.222;2023-02-15T00:12:39;7.70;;;6.90;;
75744;SDS011;64359;51.366;-0.222;2023-02-15T00:13:44;7.90;;;7.10;;
75744;SDS011;64359;51.366;-0.222;2023-02-15T00:14:48;7.80;;;7.00;;
75744;SDS011;64359;51.366;-0.222;2023-02-15T00:15:53;9.30;;;8.30;;
75744;SDS011;64359;51.366;-0.222;2023-02-15T00:17:02;8.00;;;7.20;;
75744;SDS011;64359;51.366;-0.222;2023-02-15T00:18:06;9.70;;;8.80;;
75744;SDS011;64359;51.366;-0.222;2023-02-15T00:19:11;9.40;;;8.60;;
75744;SDS011;64359;51.366;-0.222;2023-02-15T00:20:17;7.90;;;7.10;;
75744;SDS011;64359;51.366;-0.222;2023-02-15T00:21:21;8.20;;;7.20;;
75744;SDS011;64359;51.366;-0.222;2023-02-15T00:22:26;8.80;;;8.00;;
75744;SDS011;64359;51.366;-0.222;2023-02-15T00:23:30;7.80;;;7.00;;
75744;SDS011;64359;51.366;-0.222;2023-02-15T00:24:35;9.90;;;9.00;;
75744;SDS011;64359;51.366;-0.222;2023-02-15T00:25:39;9.60;;;8.70;;
75744;SDS011;64359;51.366;-0.222;2023-02-15T00:26:44;9.70;;;8.80;;
75744;SDS011;64359;51.366;-0.222;2023-02-15T00:27:49;8.30;;;7.50;;
75744;SDS011;64359;51.366;-0.222;2023-02-15T00:28:53;7.40;;;6.70;;
75744;SDS011;64359;51.366;-0.222;2023-02-15T00:30:00;7.90;;;7.10;;
75744;SDS011;64359;51.366;-0.222;2023-02-15T00:31:05;8.00;;;7.20;;
75744;SDS011;64359;51.366;-0.222;2023-02-15T00:32:10;7.80;;;7.00;;
75744;SDS011;64359;51.366;-0.222;2023-02-15T00:33:15;8.30;;;7.50;;
75744;SDS011;64359;51.366;-0.222;2023-02-15T00:34:20;8.20;;;7.10;;
75744;SDS011;64359;51.366;-0.222;2023-02-15T00:35:26;9.20;;;7.80;;
75744;SDS011;64359;51.366;-0.222;2023-02-15T00:36:30;10.10;;;9.10;;
75744;SDS011;64359;51.366;-0.222;2023-02-15T00:37:35;10.20;;;8.70;;
75744;SDS011;64359;51.366;-0.222;2023-02-15T00:38:39;8.70;;;7.80;;
75744;SDS011;64359;51.366;-0.222;2023-02-15T00:39:44;8.70;;;7.80;;
75744;SDS011;64359;51.366;-0.222;2023-02-15T00:40:52;10.30;;;9.30;;
75744;SDS011;64359;51.366;-0.222;2023-02-15T00:41:57;8.60;;;7.60;;
75744;SDS011;64359;51.366;-0.222;2023-02-15T00:43:01;10.20;;;9.20;;
75744;SDS011;64359;51.366;-0.222;2023-02-15T00:44:05;9.90;;;8.90;;
75744;SDS011;64359;51.366;-0.222;2023-02-15T00:45:10;9.10;;;7.80;;
75744;SDS011;64359;51.366;-0.222;2023-02-15T00:46:15;8.50;;;7.50;;
75744;SDS011;64359;51.366;-0.222;2023-02-15T00:47:19;10.90;;;9.80;;
75744;SDS011;64359;51.366;-0.222;2023-02-15T00:48:23;9.50;;;8.60;;
75744;SDS011;64359;51.366;-0.222;2023-02-15T00:49:28;10.40;;;9.30;;
75744;SDS011;64359;51.366;-0.222;2023-02-15T00:50:32;10.90;;;9.90;;
75744;SDS011;64359;51.366;-0.222;2023-02-15T00:51:36;9.20;;;8.30;;
75744;SDS011;64359;51.366;-0.222;2023-02-15T00:52:41;9.10;;;8.20;;
75744;SDS011;64359;51.366;-0.222;2023-02-15T00:53:46;10.20;;;8.50;;
75744;SDS011;64359;51.366;-0.222;2023-02-15T00:54:50;10.50;;;9.50;;
75744;SDS011;64359;51.366;-0.222;2023-02-15T00:55:55;9.70;;;8.70;;
75744;SDS011;64359;51.366;-0.222;2023-02-15T00:56:59;11.10;;;9.90;;
75744;SDS011;64359;51.366;-0.222;2023-02-15T00:58:04;9.10;;;8.20;;
75744;SDS011;64359;51.366;-0.222;2023-02-15T00:59:09;9.10;;;8.20;;
75744;SDS011;64359;51.366;-0.222;2023-02-15T01:01:19;9.70;;;8.00;;
75744;SDS011;64359;51.366;-0.222;2023-02-15T01:02:25;8.50;;;7.70;;
75744;SDS011;64359;51.366;-0.222;2023-02-15T01:03:29;8.80;;;7.60;;
75744;SDS011;64359;51.366;-0.222;2023-02-15T01:04:34;8.00;;;7.20;;
75744;SDS011;64359;51.366;-0.222;2023-02-15T01:05:38;7.80;;;7.00;;
75744;SDS011;64359;51.366;-0.222;2023-02-15T01:06:42;9.20;;;8.20;;
75744;SDS011;64359;51.366;-0.222;2023-02-15T01:07:47;8.10;;;7.30;;
75744;SDS011;64359;51.366;-0.222;2023-02-15T01:08:51;7.80;;;7.00;;
75744;SDS011;64359;51.366;-0.222;2023-02-15T01:09:55;8.00;;;7.00;;
75744;SDS011;64359;51.366;-0.222;2023-02-15T01:11:03;7.70;;;6.80;;
75744;SDS011;64359;51.366;-0.222;2023-02-15T01:12:08;9.30;;;8.40;;
75744;SDS011;64359;51.366;-0.222;2023-02-15T01:13:13;8.10;;;7.20;;
75744;SDS011;64359;51.366;-0.222;2023-02-15T01:14:18;7.30;;;6.60;;
75744;SDS011;64359;51.366;-0.222;2023-02-15T01:15:22;7.90;;;7.10;;
75744;SDS011;64359;51.366;-0.222;2023-02-15T01:16:28;7.90;;;7.10;;
75744;SDS011;64359;51.366;-0.222;2023-02-15T01:17:32;7.70;;;7.00;;
75744;SDS011;64359;51.366;-0.222;2023-02-15T01:18:36;7.70;;;6.90;;
75744;SDS011;64359;51.366;-0.222;2023-02-15T01:19:41;7.40;;;6.70;;
75744;SDS011;64359;51.366;-0.222;2023-02-15T01:20:45;7.90;;;7.10;;
75744;SDS011;64359;51.366;-0.222;2023-02-15T01:21:50;8.20;;;6.90;;
75744;SDS011;64359;51.366;-0.222;2023-02-15T01:22:54;8.90;;;8.00;;
75744;SDS011;64359;51.366;-0.222;2023-02-15T01:23:59;7.20;;;6.50;;
75744;SDS011;64359;51.366;-0.222;2023-02-15T01:25:04;7.60;;;6.90;;
75744;SDS011;64359;51.366;-0.222;2023-02-15T01:26:09;7.30;;;6.60;;
75744;SDS011;64359;51.366;-0.222;2023-02-15T01:27:14;7.60;;;6.80;;
75744;SDS011;64359;51.366;-0.222;2023-02-15T01:28:19;7.20;;;6.50;;
75744;SDS011;64359;51.366;-0.222;2023-02-15T01:29:23;9.40;;;8.50;;
75744;SDS011;64359;51.366;-0.222;2023-02-15T01:30:27;7.90;;;7.10;;
75744;SDS011;64359;51.366;-0.222;2023-02-15T01:31:32;8.90;;;8.00;;
75744;SDS011;64359;51.366;-0.222;2023-02-15T01:32:36;8.40;;;7.60;;
75744;SDS011;64359;51.366;-0.222;2023-02-15T01:33:41;8.80;;;7.80;;
75744;SDS011;64359;51.366;-0.222;2023-02-15T01:34:45;8.70;;;7.80;;
75744;SDS011;64359;51.366;-0.222;2023-02-15T01:35:52;8.00;;;7.20;;
75744;SDS011;64359;51.366;-0.222;2023-02-15T01:37:00;9.90;;;9.00;;
75744;SDS011;64359;51.366;-0.222;2023-02-15T01:38:04;8.30;;;7.50;;
75744;SDS011;64359;51.366;-0.222;2023-02-15T01:39:08;7.90;;;7.00;;
75744;SDS011;64359;51.366;-0.222;2023-02-15T01:40:14;9.20;;;8.30;;
75744;SDS011;64359;51.366;-0.222;2023-02-15T01:41:20;9.50;;;8.60;;
75744;SDS011;64359;51.366;-0.222;2023-02-15T01:42:30;9.40;;;8.50;;
75744;SDS011;64359;51.366;-0.222;2023-02-15T01:43:40;8.40;;;7.40;;
75744;SDS011;64359;51.366;-0.222;2023-02-15T01:44:47;7.60;;;6.80;;
75744;SDS011;64359;51.366;-0.222;2023-02-15T01:45:53;7.50;;;6.80;;
75744;SDS011;64359;51.366;-0.222;2023-02-15T01:46:57;9.90;;;9.00;;
75744;SDS011;64359;51.366;-0.222;2023-02-15T01:48:03;7.50;;;6.70;;
75744;SDS011;64359;51.366;-0.222;2023-02-15T01:49:15;8.90;;;8.10;;
75744;SDS011;64359;51.366;-0.222;2023-02-15T01:50:24;9.40;;;8.50;;
75744;SDS011;64359;51.366;-0.222;2023-02-15T01:51:33;7.40;;;6.60;;
75744;SDS011;64359;51.366;-0.222;2023-02-15T01:52:41;8.40;;;7.60;;
75744;SDS011;64359;51.366;-0.222;2023-02-15T01:53:51;7.20;;;6.50;;
75744;SDS011;64359;51.366;-0.222;2023-02-15T01:55:01;8.80;;;8.00;;
75744;SDS011;64359;51.366;-0.222;2023-02-15T01:56:06;8.20;;;7.40;;
75744;SDS011;64359;51.366;-0.222;2023-02-15T01:57:15;8.30;;;7.60;;
75744;SDS011;64359;51.366;-0.222;2023-02-15T01:58:23;8.70;;;7.90;;
75744;SDS011;64359;51.366;-0.222;2023-02-15T01:59:30;7.30;;;6.60;;
75744;SDS011;64359;51.366;-0.222;2023-02-15T02:00:37;7.70;;;6.90;;
75744;SDS011;64359;51.366;-0.222;2023-02-15T02:01:42;8.40;;;7.60;;
75744;SDS011;64359;51.366;-0.222;2023-02-15T02:02:48;8.00;;;7.20;;
75744;SDS011;64359;51.366;-0.222;2023-02-15T02:03:58;8.20;;;7.40;;
75744;SDS011;64359;51.366;-0.222;2023-02-15T02:05:08;7.30;;;6.60;;
75744;SDS011;64359;51.366;-0.222;2023-02-15T02:06:12;7.80;;;7.00;;
75744;SDS011;64359;51.366;-0.222;2023-02-15T02:07:18;7.60;;;6.80;;
75744;SDS011;64359;51.366;-0.222;2023-02-15T02:08:25;8.70;;;7.90;;
75744;SDS011;64359;51.366;-0.222;2023-02-15T02:09:30;8.10;;;6.90;;
75744;SDS011;64359;51.366;-0.222;2023-02-15T02:10:35;7.20;;;6.40;;
75744;SDS011;64359;51.366;-0.222;2023-02-15T02:11:39;8.30;;;7.50;;
75744;SDS011;64359;51.366;-0.222;2023-02-15T02:12:47;7.00;;;6.20;;
75744;SDS011;64359;51.366;-0.222;2023-02-15T02:13:55;7.30;;;6.60;;
75744;SDS011;64359;51.366;-0.222;2023-02-15T02:15:00;6.70;;;6.00;;
75744;SDS011;64359;51.366;-0.222;2023-02-15T02:16:06;7.30;;;6.60;;
75744;SDS011;64359;51.366;-0.222;2023-02-15T02:17:16;7.40;;;6.60;;
75744;SDS011;64359;51.366;-0.222;2023-02-15T02:18:30;7.30;;;6.50;;
75744;SDS011;64359;51.366;-0.222;2023-02-15T02:19:56;7.40;;;6.70;;
75744;SDS011;64359;51.366;-0.222;2023-02-15T02:21:34;8.60;;;7.80;;
75744;SDS011;64359;51.366;-0.222;2023-02-15T02:23:25;6.40;;;5.70;;
75744;SDS011;64359;51.366;-0.222;2023-02-15T02:24:58;8.90;;;8.00;;
75744;SDS011;64359;51.366;-0.222;2023-02-15T02:26:23;8.40;;;7.60;;
75744;SDS011;64359;51.366;-0.222;2023-02-15T02:27:50;7.10;;;6.40;;
75744;SDS011;64359;51.366;-0.222;2023-02-15T02:32:25;8.00;;;7.30;;
75744;SDS011;64359;51.366;-0.222;2023-02-15T02:35:05;7.60;;;6.80;;
75744;SDS011;64359;51.366;-0.222;2023-02-15T02:36:17;7.10;;;6.30;;
75744;SDS011;64359;51.366;-0.222;2023-02-15T02:37:30;10.30;;;9.30;;
75744;SDS011;64359;51.366;-0.222;2023-02-15T02:38:50;9.30;;;8.40;;
75744;SDS011;64359;51.366;-0.222;2023-02-15T02:40:05;8.20;;;6.70;;
75744;SDS011;64359;51.366;-0.222;2023-02-15T02:41:17;7.40;;;6.70;;
75744;SDS011;64359;51.366;-0.222;2023-02-15T02:42:28;7.40;;;6.70;;
75744;SDS011;64359;51.366;-0.222;2023-02-15T02:43:38;8.90;;;8.10;;
75744;SDS011;64359;51.366;-0.222;2023-02-15T02:44:51;7.50;;;6.70;;
75744;SDS011;64359;51.366;-0.222;2023-02-15T02:46:00;7.80;;;7.00;;
75744;SDS011;64359;51.366;-0.222;2023-02-15T02:47:10;7.60;;;6.90;;
75744;SDS011;64359;51.366;-0.222;2023-02-15T02:48:19;8.10;;;7.30;;
75744;SDS011;64359;51.366;-0.222;2023-02-15T02:49:31;7.00;;;6.30;;
75744;SDS011;64359;51.366;-0.222;2023-02-15T02:50:38;8.30;;;7.10;;
75744;SDS011;64359;51.366;-0.222;2023-02-15T02:51:43;7.60;;;6.90;;
75744;SDS011;64359;51.366;-0.222;2023-02-15T02:52:48;9.10;;;8.20;;
75744;SDS011;64359;51.366;-0.222;2023-02-15T02:53:54;7.60;;;6.80;;
75744;SDS011;64359;51.366;-0.222;2023-02-15T02:55:03;10.30;;;9.30;;
75744;SDS011;64359;51.366;-0.222;2023-02-15T02:56:13;9.20;;;8.30;;
75744;SDS011;64359;51.366;-0.222;2023-02-15T02:57:23;8.20;;;7.20;;
75744;SDS011;64359;51.366;-0.222;2023-02-15T02:58:31;7.40;;;6.60;;
75744;SDS011;64359;51.366;-0.222;2023-02-15T02:59:40;8.90;;;7.60;;
75744;SDS011;64359;51.366;-0.222;2023-02-15T03:00:49;9.30;;;8.40;;
75744;SDS011;64359;51.366;-0.222;2023-02-15T03:01:57;10.10;;;8.80;;
75744;SDS011;64359;51.366;-0.222;2023-02-15T03:03:09;7.40;;;6.70;;
75744;SDS011;64359;51.366;-0.222;2023-02-15T03:04:17;7.70;;;6.90;;
75744;SDS011;64359;51.366;-0.222;2023-02-15T03:05:25;9.10;;;8.20;;
75744;SDS011;64359;51.366;-0.222;2023-02-15T03:06:33;7.80;;;6.80;;
75744;SDS011;64359;51.366;-0.222;2023-02-15T03:07:42;7.70;;;6.90;;
75744;SDS011;64359;51.366;-0.222;2023-02-15T03:08:53;8.20;;;7.40;;
75744;SDS011;64359;51.366;-0.222;2023-02-15T03:10:00;7.50;;;6.70;;
75744;SDS011;64359;51.366;-0.222;2023-02-15T03:11:07;8.00;;;7.20;;
75744;SDS011;64359;51.366;-0.222;2023-02-15T03:12:14;9.10;;;8.30;;
75744;SDS011;64359;51.366;-0.222;2023-02-15T03:13:22;8.00;;;7.00;;
75744;SDS011;64359;51.366;-0.222;2023-02-15T03:14:27;9.60;;;8.70;;
75744;SDS011;64359;51.366;-0.222;2023-02-15T03:15:33;9.40;;;8.50;;
75744;SDS011;64359;51.366;-0.222;2023-02-15T03:16:54;8.00;;;7.20;;
75744;SDS011;64359;51.366;-0.222;2023-02-15T03:17:59;8.70;;;7.90;;
75744;SDS011;64359;51.366;-0.222;2023-02-15T03:19:07;8.90;;;8.10;;
75744;SDS011;64359;51.366;-0.222;2023-02-15T03:20:16;8.70;;;7.80;;
75744;SDS011;64359;51.366;-0.222;2023-02-15T03:21:34;7.50;;;6.70;;
75744;SDS011;64359;51.366;-0.222;2023-02-15T03:22:44;7.90;;;7.20;;
75744;SDS011;64359;51.366;-0.222;2023-02-15T03:23:52;8.10;;;7.20;;
75744;SDS011;64359;51.366;-0.222;2023-02-15T03:25:04;9.20;;;8.30;;
75744;SDS011;64359;51.366;-0.222;2023-02-15T03:26:12;8.10;;;7.30;;
75744;SDS011;64359;51.366;-0.222;2023-02-15T03:27:17;7.80;;;7.00;;
75744;SDS011;64359;51.366;-0.222;2023-02-15T03:28:25;10.10;;;9.10;;
75744;SDS011;64359;51.366;-0.222;2023-02-15T03:29:34;8.10;;;7.30;;
75744;SDS011;64359;51.366;-0.222;2023-02-15T03:30:40;8.90;;;8.00;;
75744;SDS011;64359;51.366;-0.222;2023-02-15T03:31:49;8.50;;;7.70;;
75744;SDS011;64359;51.366;-0.222;2023-02-15T03:32:58;8.10;;;7.30;;
75744;SDS011;64359;51.366;-0.222;2023-02-15T03:34:06;8.80;;;7.60;;
75744;SDS011;64359;51.366;-0.222;2023-02-15T03:35:13;9.90;;;8.90;;
75744;SDS011;64359;51.366;-0.222;2023-02-15T03:36:18;9.50;;;8.00;;
75744;SDS011;64359;51.366;-0.222;2023-02-15T03:37:26;7.60;;;6.90;;
75744;SDS011;64359;51.366;-0.222;2023-02-15T03:38:36;8.70;;;7.80;;
75744;SDS011;64359;51.366;-0.222;2023-02-15T03:39:47;9.70;;;8.80;;
75744;SDS011;64359;51.366;-0.222;2023-02-15T03:40:56;8.90;;;8.00;;
75744;SDS011;64359;51.366;-0.222;2023-02-15T03:42:13;10.80;;;8.50;;
75744;SDS011;64359;51.366;-0.222;2023-02-15T03:43:21;9.10;;;8.00;;
75744;SDS011;64359;51.366;-0.222;2023-02-15T03:44:35;8.60;;;7.70;;
75744;SDS011;64359;51.366;-0.222;2023-02-15T03:45:45;8.40;;;7.50;;
75744;SDS011;64359;51.366;-0.222;2023-02-15T03:47:00;8.50;;;7.70;;
75744;SDS011;64359;51.366;-0.222;2023-02-15T03:48:08;8.70;;;7.50;;
75744;SDS011;64359;51.366;-0.222;2023-02-15T03:49:14;8.80;;;7.60;;
75744;SDS011;64359;51.366;-0.222;2023-02-15T03:50:22;8.50;;;7.60;;
75744;SDS011;64359;51.366;-0.222;2023-02-15T03:51:48;8.70;;;7.90;;
75744;SDS011;64359;51.366;-0.222;2023-02-15T03:52:55;8.90;;;7.60;;
75744;SDS011;64359;51.366;-0.222;2023-02-15T03:54:03;8.80;;;7.90;;
75744;SDS011;64359;51.366;-0.222;2023-02-15T03:55:10;9.40;;;8.30;;
75744;SDS011;64359;51.366;-0.222;2023-02-15T03:56:15;9.50;;;8.50;;
75744;SDS011;64359;51.366;-0.222;2023-02-15T03:57:20;9.10;;;7.70;;
75744;SDS011;64359;51.366;-0.222;2023-02-15T03:58:43;8.10;;;7.20;;
75744;SDS011;64359;51.366;-0.222;2023-02-15T04:00:09;8.70;;;7.80;;
75744;SDS011;64359;51.366;-0.222;2023-02-15T04:01:36;7.90;;;7.10;;
75744;SDS011;64359;51.366;-0.222;2023-02-15T04:03:07;8.40;;;7.50;;
75744;SDS011;64359;51.366;-0.222;2023-02-15T04:04:19;9.70;;;8.70;;
75744;SDS011;64359;51.366;-0.222;2023-02-15T04:05:25;8.80;;;7.90;;
75744;SDS011;64359;51.366;-0.222;2023-02-15T04:06:29;8.70;;;7.60;;
75744;SDS011;64359;51.366;-0.222;2023-02-15T04:07:34;9.40;;;8.40;;
75744;SDS011;64359;51.366;-0.222;2023-02-15T04:08:38;9.60;;;8.40;;
75744;SDS011;64359;51.366;-0.222;2023-02-15T04:10:01;8.30;;;7.20;;
75744;SDS011;64359;51.366;-0.222;2023-02-15T04:11:22;10.10;;;9.20;;
75744;SDS011;64359;51.366;-0.222;2023-02-15T04:12:27;9.70;;;8.70;;
75744;SDS011;64359;51.366;-0.222;2023-02-15T04:13:31;9.00;;;8.10;;
75744;SDS011;64359;51.366;-0.222;2023-02-15T04:14:36;11.00;;;10.00;;
75744;SDS011;64359;51.366;-0.222;2023-02-15T04:15:58;9.90;;;8.90;;
75744;SDS011;64359;51.366;-0.222;2023-02-15T04:17:06;11.60;;;10.50;;
75744;SDS011;64359;51.366;-0.222;2023-02-15T04:18:11;11.30;;;10.10;;
75744;SDS011;64359;51.366;-0.222;2023-02-15T04:19:15;11.10;;;9.90;;
75744;SDS011;64359;51.366;-0.222;2023-02-15T04:20:37;10.10;;;9.10;;
75744;SDS011;64359;51.366;-0.222;2023-02-15T04:21:59;10.30;;;9.20;;
75744;SDS011;64359;51.366;-0.222;2023-02-15T04:23:21;10.00;;;9.00;;
75744;SDS011;64359;51.366;-0.222;2023-02-15T04:24:42;9.60;;;7.90;;
75744;SDS011;64359;51.366;-0.222;2023-02-15T04:26:04;8.60;;;7.70;;
75744;SDS011;64359;51.366;-0.222;2023-02-15T04:27:09;8.20;;;7.30;;
75744;SDS011;64359;51.366;-0.222;2023-02-15T04:28:13;9.70;;;8.30;;
75744;SDS011;64359;51.366;-0.222;2023-02-15T04:29:17;10.80;;;9.70;;
75744;SDS011;64359;51.366;-0.222;2023-02-15T04:30:23;9.30;;;8.30;;
75744;SDS011;64359;51.366;-0.222;2023-02-15T04:31:28;9.70;;;8.30;;
75744;SDS011;64359;51.366;-0.222;2023-02-15T04:32:32;10.10;;;9.10;;
75744;SDS011;64359;51.366;-0.222;2023-02-15T04:33:37;9.80;;;8.80;;
75744;SDS011;64359;51.366;-0.222;2023-02-15T04:34:41;9.30;;;8.10;;
75744;SDS011;64359;51.366;-0.222;2023-02-15T04:35:45;10.50;;;9.40;;
75744;SDS011;64359;51.366;-0.222;2023-02-15T04:36:50;11.40;;;10.30;;
75744;SDS011;64359;51.366;-0.222;2023-02-15T04:37:54;9.90;;;8.90;;
75744;SDS011;64359;51.366;-0.222;2023-02-15T04:38:58;9.90;;;8.70;;
75744;SDS011;64359;51.366;-0.222;2023-02-15T04:40:03;11.10;;;10.10;;
75744;SDS011;64359;51.366;-0.222;2023-02-15T04:41:09;8.90;;;8.00;;
75744;SDS011;64359;51.366;-0.222;2023-02-15T04:42:14;10.90;;;9.20;;
75744;SDS011;64359;51.366;-0.222;2023-02-15T04:43:18;8.40;;;7.50;;
75744;SDS011;64359;51.366;-0.222;2023-02-15T04:44:23;10.80;;;9.70;;
75744;SDS011;64359;51.366;-0.222;2023-02-15T04:45:27;9.60;;;8.50;;
75744;SDS011;64359;51.366;-0.222;2023-02-15T04:46:32;11.60;;;10.30;;
75744;SDS011;64359;51.366;-0.222;2023-02-15T04:47:36;10.50;;;9.50;;
75744;SDS011;64359;51.366;-0.222;2023-02-15T04:48:40;9.10;;;8.20;;
75744;SDS011;64359;51.366;-0.222;2023-02-15T04:49:45;10.60;;;9.50;;
75744;SDS011;64359;51.366;-0.222;2023-02-15T04:50:50;11.80;;;10.70;;
75744;SDS011;64359;51.366;-0.222;2023-02-15T04:51:54;9.10;;;8.20;;
75744;SDS011;64359;51.366;-0.222;2023-02-15T04:52:58;10.60;;;9.60;;
75744;SDS011;64359;51.366;-0.222;2023-02-15T04:54:03;9.70;;;8.50;;
75744;SDS011;64359;51.366;-0.222;2023-02-15T04:55:08;10.20;;;9.20;;
75744;SDS011;64359;51.366;-0.222;2023-02-15T04:56:12;9.10;;;7.60;;
75744;SDS011;64359;51.366;-0.222;2023-02-15T04:57:16;10.50;;;9.50;;
75744;SDS011;64359;51.366;-0.222;2023-02-15T04:58:21;10.80;;;9.70;;
75744;SDS011;64359;51.366;-0.222;2023-02-15T04:59:25;10.90;;;9.60;;
75744;SDS011;64359;51.366;-0.222;2023-02-15T05:00:29;11.50;;;10.30;;
75744;SDS011;64359;51.366;-0.222;2023-02-15T05:01:34;11.60;;;10.50;;
75744;SDS011;64359;51.366;-0.222;2023-02-15T05:02:38;9.10;;;8.10;;
75744;SDS011;64359;51.366;-0.222;2023-02-15T05:03:42;10.10;;;8.50;;
75744;SDS011;64359;51.366;-0.222;2023-02-15T05:04:47;10.80;;;9.70;;
75744;SDS011;64359;51.366;-0.222;2023-02-15T05:05:51;9.50;;;8.40;;
75744;SDS011;64359;51.366;-0.222;2023-02-15T05:06:55;10.10;;;8.90;;
75744;SDS011;64359;51.366;-0.222;2023-02-15T05:08:00;10.90;;;9.80;;
75744;SDS011;64359;51.366;-0.222;2023-02-15T05:09:04;9.70;;;8.70;;
75744;SDS011;64359;51.366;-0.222;2023-02-15T05:10:09;12.10;;;10.90;;
75744;SDS011;64359;51.366;-0.222;2023-02-15T05:11:14;10.30;;;8.70;;
75744;SDS011;64359;51.366;-0.222;2023-02-15T05:12:18;11.30;;;10.20;;
75744;SDS011;64359;51.366;-0.222;2023-02-15T05:13:22;11.80;;;10.60;;
75744;SDS011;64359;51.366;-0.222;2023-02-15T05:14:27;10.30;;;8.70;;
75744;SDS011;64359;51.366;-0.222;2023-02-15T05:15:31;9.40;;;8.50;;
75744;SDS011;64359;51.366;-0.222;2023-02-15T05:16:35;10.70;;;9.70;;
75744;SDS011;64359;51.366;-0.222;2023-02-15T05:17:40;12.00;;;10.80;;
75744;SDS011;64359;51.366;-0.222;2023-02-15T05:18:44;10.30;;;9.00;;
75744;SDS011;64359;51.366;-0.222;2023-02-15T05:19:48;11.50;;;10.40;;
75744;SDS011;64359;51.366;-0.222;2023-02-15T05:20:53;9.90;;;8.90;;
75744;SDS011;64359;51.366;-0.222;2023-02-15T05:21:57;10.20;;;9.10;;
75744;SDS011;64359;51.366;-0.222;2023-02-15T05:23:02;10.10;;;9.10;;
75744;SDS011;64359;51.366;-0.222;2023-02-15T05:24:06;11.20;;;10.10;;
75744;SDS011;64359;51.366;-0.222;2023-02-15T05:25:24;9.50;;;8.00;;
75744;SDS011;64359;51.366;-0.222;2023-02-15T05:26:46;9.50;;;8.40;;
75744;SDS011;64359;51.366;-0.222;2023-02-15T05:28:09;9.70;;;8.50;;
75744;SDS011;64359;51.366;-0.222;2023-02-15T05:29:23;9.40;;;8.10;;
75744;SDS011;64359;51.366;-0.222;2023-02-15T05:30:27;10.90;;;9.60;;
75744;SDS011;64359;51.366;-0.222;2023-02-15T05:31:31;9.30;;;8.30;;
75744;SDS011;64359;51.366;-0.222;2023-02-15T05:32:36;12.10;;;10.80;;
75744;SDS011;64359;51.366;-0.222;2023-02-15T05:33:40;10.40;;;8.90;;
75744;SDS011;64359;51.366;-0.222;2023-02-15T05:34:45;9.80;;;8.80;;
75744;SDS011;64359;51.366;-0.222;2023-02-15T05:35:49;10.90;;;9.80;;
75744;SDS011;64359;51.366;-0.222;2023-02-15T05:36:54;11.80;;;10.60;;
75744;SDS011;64359;51.366;-0.222;2023-02-15T05:37:58;10.00;;;8.90;;
75744;SDS011;64359;51.366;-0.222;2023-02-15T05:39:03;12.60;;;11.40;;
75744;SDS011;64359;51.366;-0.222;2023-02-15T05:40:10;10.30;;;8.80;;
75744;SDS011;64359;51.366;-0.222;2023-02-15T05:41:15;11.80;;;10.70;;
75744;SDS011;64359;51.366;-0.222;2023-02-15T05:42:19;10.70;;;9.30;;
75744;SDS011;64359;51.366;-0.222;2023-02-15T05:43:24;12.50;;;11.20;;
75744;SDS011;64359;51.366;-0.222;2023-02-15T05:44:28;10.10;;;9.10;;
75744;SDS011;64359;51.366;-0.222;2023-02-15T05:45:33;9.60;;;8.70;;
75744;SDS011;64359;51.366;-0.222;2023-02-15T05:46:37;11.80;;;10.70;;
75744;SDS011;64359;51.366;-0.222;2023-02-15T05:47:42;9.40;;;8.40;;
75744;SDS011;64359;51.366;-0.222;2023-02-15T05:48:46;12.10;;;10.90;;
75744;SDS011;64359;51.366;-0.222;2023-02-15T05:49:50;10.00;;;9.00;;
75744;SDS011;64359;51.366;-0.222;2023-02-15T05:50:58;10.40;;;8.90;;
75744;SDS011;64359;51.366;-0.222;2023-02-15T05:52:04;11.20;;;10.00;;
75744;SDS011;64359;51.366;-0.222;2023-02-15T05:53:09;11.30;;;10.20;;
75744;SDS011;64359;51.366;-0.222;2023-02-15T05:54:14;9.40;;;8.30;;
75744;SDS011;64359;51.366;-0.222;2023-02-15T05:55:18;9.90;;;8.40;;
75744;SDS011;64359;51.366;-0.222;2023-02-15T05:56:23;10.40;;;9.30;;
75744;SDS011;64359;51.366;-0.222;2023-02-15T05:57:27;10.40;;;9.00;;
75744;SDS011;64359;51.366;-0.222;2023-02-15T05:58:32;11.60;;;10.40;;
75744;SDS011;64359;51.366;-0.222;2023-02-15T05:59:38;10.00;;;8.90;;
75744;SDS011;64359;51.366;-0.222;2023-02-15T06:00:42;12.10;;;11.00;;
75744;SDS011;64359;51.366;-0.222;2023-02-15T06:01:47;11.00;;;9.90;;
75744;SDS011;64359;51.366;-0.222;2023-02-15T06:02:51;9.50;;;8.50;;
75744;SDS011;64359;51.366;-0.222;2023-02-15T06:03:55;11.50;;;10.30;;
75744;SDS011;64359;51.366;-0.222;2023-02-15T06:05:00;9.60;;;8.70;;
75744;SDS011;64359;51.366;-0.222;2023-02-15T06:06:05;12.40;;;11.20;;
75744;SDS011;64359;51.366;-0.222;2023-02-15T06:07:10;10.50;;;9.30;;
75744;SDS011;64359;51.366;-0.222;2023-02-15T06:08:14;10.00;;;8.90;;
75744;SDS011;64359;51.366;-0.222;2023-02-15T06:09:19;11.80;;;10.60;;
75744;SDS011;64359;51.366;-0.222;2023-02-15T06:10:23;10.20;;;9.20;;
75744;SDS011;64359;51.366;-0.222;2023-02-15T06:11:27;11.90;;;10.70;;
75744;SDS011;64359;51.366;-0.222;2023-02-15T06:12:32;11.50;;;10.30;;
75744;SDS011;64359;51.366;-0.222;2023-02-15T06:13:36;12.00;;;10.90;;
75744;SDS011;64359;51.366;-0.222;2023-02-15T06:14:40;9.70;;;8.50;;
75744;SDS011;64359;51.366;-0.222;2023-02-15T06:15:45;10.90;;;9.00;;
75744;SDS011;64359;51.366;-0.222;2023-02-15T06:16:49;11.90;;;10.70;;
75744;SDS011;64359;51.366;-0.222;2023-02-15T06:17:54;11.70;;;10.60;;
75744;SDS011;64359;51.366;-0.222;2023-02-15T06:18:58;11.50;;;10.40;;
75744;SDS011;64359;51.366;-0.222;2023-02-15T06:20:03;11.10;;;9.90;;
75744;SDS011;64359;51.366;-0.222;2023-02-15T06:21:09;10.20;;;9.10;;
75744;SDS011;64359;51.366;-0.222;2023-02-15T06:22:13;11.00;;;9.10;;
75744;SDS011;64359;51.366;-0.222;2023-02-15T06:23:18;10.40;;;8.70;;
75744;SDS011;64359;51.366;-0.222;2023-02-15T06:24:22;10.00;;;9.00;;
75744;SDS011;64359;51.366;-0.222;2023-02-15T06:25:26;10.60;;;8.90;;
75744;SDS011;64359;51.366;-0.222;2023-02-15T06:26:31;10.40;;;9.30;;
75744;SDS011;64359;51.366;-0.222;2023-02-15T06:27:35;11.30;;;10.10;;
75744;SDS011;64359;51.366;-0.222;2023-02-15T06:28:40;9.90;;;8.90;;
75744;SDS011;64359;51.366;-0.222;2023-02-15T06:29:44;9.70;;;8.30;;
75744;SDS011;64359;51.366;-0.222;2023-02-15T06:30:48;10.60;;;9.30;;
75744;SDS011;64359;51.366;-0.222;2023-02-15T06:31:53;9.80;;;8.80;;
75744;SDS011;64359;51.366;-0.222;2023-02-15T06:32:57;10.80;;;8.50;;
75744;SDS011;64359;51.366;-0.222;2023-02-15T06:34:02;10.60;;;9.60;;
75744;SDS011;64359;51.366;-0.222;2023-02-15T06:35:07;11.00;;;8.80;;
75744;SDS011;64359;51.366;-0.222;2023-02-15T06:36:11;13.90;;;10.00;;
75744;SDS011;64359;51.366;-0.222;2023-02-15T06:37:16;10.40;;;9.00;;
75744;SDS011;64359;51.366;-0.222;2023-02-15T06:38:20;15.70;;;13.40;;
75744;SDS011;64359;51.366;-0.222;2023-02-15T06:39:25;11.40;;;10.20;;
75744;SDS011;64359;51.366;-0.222;2023-02-15T06:40:29;10.90;;;9.40;;
75744;SDS011;64359;51.366;-0.222;2023-02-15T06:41:33;13.10;;;9.10;;
75744;SDS011;64359;51.366;-0.222;2023-02-15T06:42:38;12.60;;;10.60;;